Time;durP1;ratioP1;P1;durP2;ratioP2;P2;SDS_P1;SDS_P2;PMS_P1;PMS_P2;Temp;Humidity;BMP_temperature;BMP_pressure;BME280_temperature;BME280_humidity;BME280_pressure;Samples;Min_cycle;Max_cycle;Signal;HPM_P1;HPM_P2
2023/07/27 00:02:46;;;;;;;7.53;6.05;;;12.90;99.90;;;;;;5014738;28;20037;-82
2023/07/27 00:05:17;;;;;;;10.15;6.07;;;13.00;99.90;;;;;;4996359;28;20053;-82
2023/07/27 00:11:36;;;;;;;11.95;5.95;;;13.00;99.90;;;;;;5005990;28;20042;-81
2023/07/27 00:14:50;;;;;;;7.15;5.68;;;13.00;99.90;;;;;;4995106;28;20038;-82
2023/07/27 00:17:56;;;;;;;8.32;5.95;;;13.10;99.90;;;;;;4930561;29;20055;-82
2023/07/27 00:39:54;;;;;;;5.68;4.60;;;13.30;99.90;;;;;;4949821;29;20079;-81
2023/07/27 00:50:45;;;;;;;7.15;4.40;;;13.40;99.90;;;;;;4915088;29;20047;-82
2023/07/27 00:58:04;;;;;;;;;;;;;;;;;;;;;
2023/07/27 01:45:23;;;;;;;6.78;4.63;;;13.80;99.90;;;;;;5080533;28;20088;-82
2023/07/27 01:48:01;;;;;;;11.35;5.13;;;13.80;99.90;;;;;;5060774;28;20398;-82
2023/07/27 01:50:28;;;;;;;9.88;4.80;;;13.30;99.90;;;;;;5099165;28;20048;-82
2023/07/27 01:53:03;;;;;;;9.88;5.00;;;13.60;99.90;;;;;;5042177;28;20072;-82
2023/07/27 01:55:30;;;;;;;10.35;4.78;;;13.80;99.90;;;;;;5045511;28;20052;-83
2023/07/27 03:56:10;;;;;;;9.32;6.50;;;13.80;99.90;;;;;;5070736;28;20044;-81
2023/07/27 03:58:47;;;;;;;7.65;6.15;;;13.80;99.90;;;;;;5047319;28;20040;-81
2023/07/27 04:01:13;;;;;;;9.95;6.45;;;13.70;99.90;;;;;;5048070;28;20070;-82
2023/07/27 04:03:48;;;;;;;8.85;6.85;;;14.20;99.90;;;;;;5049154;28;20040;-81
2023/07/27 04:06:14;;;;;;;7.57;6.57;;;13.70;99.90;;;;;;5051868;28;20065;-81
2023/07/27 04:08:39;;;;;;;7.82;6.95;;;13.90;99.90;;;;;;5063489;28;20040;-81
2023/07/27 04:11:39;;;;;;;9.68;7.18;;;13.80;99.90;;;;;;5079110;28;20036;-81
2023/07/27 04:14:41;;;;;;;;;;;;;;;;;;;;;
2023/07/27 04:17:23;;;;;;;11.18;7.32;;;13.30;99.90;;;;;;5064373;28;20040;-81
2023/07/27 04:22:57;;;;;;;12.85;7.20;;;13.80;99.90;;;;;;5040345;28;20051;-81
2023/07/27 04:25:24;;;;;;;11.75;7.75;;;13.70;99.90;;;;;;5045512;28;20040;-81
2023/07/27 04:27:53;;;;;;;9.50;7.20;;;13.20;99.90;;;;;;5075810;28;20139;-81
2023/07/27 04:30:19;;;;;;;11.80;7.57;;;13.70;99.90;;;;;;5041764;28;20036;-81
2023/07/27 04:33:13;;;;;;;9.18;7.07;;;13.90;99.90;;;;;;5035993;28;20043;-80
2023/07/27 04:35:45;;;;;;;9.00;7.18;;;13.70;99.90;;;;;;5053636;28;20048;-80
2023/07/27 04:38:16;;;;;;;11.75;7.75;;;13.70;99.90;;;;;;5060040;28;20094;-80
2023/07/27 04:41:03;;;;;;;9.40;6.95;;;14.00;99.90;;;;;;5046966;28;20056;-80
2023/07/27 04:43:52;;;;;;;10.88;7.28;;;13.90;99.90;;;;;;5052981;28;20553;-81
2023/07/27 04:56:25;;;;;;;11.93;6.93;;;14.30;99.90;;;;;;5081419;28;20052;-81
2023/07/27 04:58:51;;;;;;;10.48;7.35;;;14.10;99.90;;;;;;5065979;28;20045;-81
2023/07/27 05:01:16;;;;;;;10.75;6.13;;;13.80;99.90;;;;;;5061334;28;20152;-81
2023/07/27 05:03:42;;;;;;;6.97;5.80;;;14.00;99.90;;;;;;5067713;28;20047;-81
2023/07/27 05:06:08;;;;;;;8.23;6.53;;;13.90;99.90;;;;;;5063196;28;20037;-82
2023/07/27 05:08:33;;;;;;;7.30;6.00;;;14.00;99.90;;;;;;5073302;28;20034;-81
2023/07/27 05:10:59;;;;;;;8.20;6.50;;;13.90;99.90;;;;;;5053249;28;20041;-80
2023/07/27 05:13:50;;;;;;;9.43;6.68;;;14.00;99.90;;;;;;5054273;28;20040;-80
2023/07/27 05:16:16;;;;;;;8.88;6.15;;;14.00;99.90;;;;;;5052989;28;20074;-80
2023/07/27 05:18:42;;;;;;;7.82;6.07;;;14.00;99.90;;;;;;5064656;28;20033;-81
2023/07/27 05:21:07;;;;;;;8.38;7.10;;;14.00;99.90;;;;;;5049789;28;20107;-81
2023/07/27 05:23:33;;;;;;;9.50;6.80;;;14.00;99.90;;;;;;5052009;28;20526;-81
2023/07/27 05:25:58;;;;;;;12.00;8.05;;;14.00;99.90;;;;;;5064424;28;20372;-81
2023/07/27 05:28:28;;;;;;;10.02;6.47;;;14.00;99.90;;;;;;5031755;28;20496;-81
2023/07/27 05:30:54;;;;;;;7.45;6.63;;;14.10;99.90;;;;;;5050399;28;20043;-81
2023/07/27 05:33:20;;;;;;;7.43;6.45;;;14.10;99.90;;;;;;5045466;28;20037;-81
2023/07/27 05:35:49;;;;;;;9.55;7.55;;;14.10;99.90;;;;;;5030719;28;20086;-81
2023/07/27 05:38:18;;;;;;;8.00;6.22;;;14.20;99.90;;;;;;5054200;28;20041;-81
2023/07/27 05:40:44;;;;;;;9.50;6.15;;;14.20;99.90;;;;;;5052726;28;20055;-81
2023/07/27 05:43:09;;;;;;;6.90;5.47;;;14.20;99.90;;;;;;5055015;28;20780;-82
2023/07/27 05:45:37;;;;;;;6.32;5.10;;;14.30;99.90;;;;;;5032169;28;20082;-82
2023/07/27 05:48:03;;;;;;;8.18;5.60;;;14.30;99.90;;;;;;5053462;28;20059;-82
2023/07/27 05:50:28;;;;;;;5.18;4.68;;;14.30;99.90;;;;;;5032701;28;20037;-82
2023/07/27 05:52:54;;;;;;;6.65;4.82;;;14.30;99.90;;;;;;5066797;28;20051;-81
2023/07/27 05:55:22;;;;;;;6.05;5.45;;;14.30;99.90;;;;;;5047727;28;20098;-82
2023/07/27 05:57:54;;;;;;;7.22;5.05;;;14.30;99.90;;;;;;5065678;28;20037;-81
2023/07/27 06:00:30;;;;;;;6.90;4.70;;;14.40;99.90;;;;;;5036450;28;20507;-85
2023/07/27 06:02:55;;;;;;;;;;;14.40;99.90;;;;;;5037274;28;20646;-81
2023/07/27 06:05:21;;;;;;;6.93;4.72;;;14.40;99.90;;;;;;5069985;28;19994;-80
2023/07/27 06:07:47;;;;;;;5.95;4.68;;;14.40;99.90;;;;;;5040056;28;20044;-80
2023/07/27 06:10:13;;;;;;;7.85;5.35;;;14.40;99.90;;;;;;5055944;28;20136;-81
2023/07/27 06:12:38;;;;;;;5.78;4.45;;;14.80;99.90;;;;;;5043465;28;20052;-81
2023/07/27 06:15:08;;;;;;;6.72;4.93;;;14.50;99.90;;;;;;5059301;28;20036;-80
2023/07/27 06:17:55;;;;;;;8.48;5.57;;;14.80;99.90;;;;;;5070668;28;20062;-80
2023/07/27 06:20:22;;;;;;;6.15;5.00;;;14.50;99.90;;;;;;5055399;28;20052;-81
2023/07/27 06:22:48;;;;;;;9.52;5.65;;;14.60;99.90;;;;;;5033702;28;21102;-81
2023/07/27 06:25:17;;;;;;;6.70;6.05;;;14.60;99.90;;;;;;5070218;28;20423;-81
2023/07/27 06:27:43;;;;;;;7.75;6.13;;;14.60;99.90;;;;;;5078348;28;20032;-80
2023/07/27 06:30:08;;;;;;;7.57;5.90;;;14.60;99.90;;;;;;5059433;28;20037;-80
2023/07/27 06:39:11;;;;;;;7.18;6.43;;;14.70;99.90;;;;;;4958571;28;20066;-80
2023/07/27 06:46:31;;;;;;;;;;;;;;;;;;;;;
2023/07/27 06:49:28;;;;;;;6.82;5.82;;;14.80;99.90;;;;;;4958588;28;20054;-80
2023/07/27 06:51:54;;;;;;;8.18;6.22;;;14.70;99.90;;;;;;4987082;28;20795;-81
2023/07/27 06:54:19;;;;;;;6.72;6.05;;;14.90;99.90;;;;;;4983553;28;20054;-81
2023/07/27 06:56:45;;;;;;;8.82;5.78;;;14.80;99.90;;;;;;4986972;28;20128;-81
2023/07/27 06:59:11;;;;;;;8.02;6.45;;;14.90;99.90;;;;;;4987655;28;20080;-81
2023/07/27 07:01:36;;;;;;;7.00;6.10;;;14.90;99.90;;;;;;4976460;28;20046;-81
2023/07/27 07:04:02;;;;;;;7.95;7.07;;;14.90;99.90;;;;;;4989217;28;20060;-81
2023/07/27 07:06:28;;;;;;;9.02;7.00;;;15.00;99.90;;;;;;5006805;28;20068;-80
2023/07/27 07:08:53;;;;;;;7.63;6.85;;;14.90;99.90;;;;;;5004636;28;20042;-81
2023/07/27 07:11:19;;;;;;;8.05;7.13;;;14.90;99.90;;;;;;4990014;28;20044;-81
2023/07/27 07:13:44;;;;;;;8.27;7.10;;;14.90;99.90;;;;;;5007458;28;20038;-81
2023/07/27 07:16:10;;;;;;;6.72;6.13;;;14.90;99.90;;;;;;5008052;28;20041;-81
2023/07/27 07:18:35;;;;;;;8.25;7.38;;;14.90;99.90;;;;;;4989549;28;20782;-81
2023/07/27 07:21:01;;;;;;;8.05;7.30;;;15.00;99.90;;;;;;4997991;28;20488;-81
2023/07/27 07:23:27;;;;;;;6.53;5.75;;;15.10;99.90;;;;;;4993754;28;20038;-81
2023/07/27 07:25:55;;;;;;;7.63;6.40;;;15.10;99.90;;;;;;4990584;28;20080;-81
2023/07/27 07:28:23;;;;;;;9.77;6.75;;;15.10;99.90;;;;;;4997932;28;20132;-80
2023/07/27 07:30:49;;;;;;;8.15;7.05;;;15.10;99.90;;;;;;5007692;28;20115;-81
2023/07/27 07:33:14;;;;;;;6.80;6.07;;;15.10;99.90;;;;;;4977185;28;20041;-80
2023/07/27 07:35:40;;;;;;;6.93;5.80;;;15.10;99.90;;;;;;5017207;28;20054;-81
2023/07/27 07:38:06;;;;;;;9.68;5.95;;;15.20;99.90;;;;;;4975216;28;20830;-81
2023/07/27 07:40:32;;;;;;;7.38;6.35;;;15.20;99.90;;;;;;4989586;28;20065;-80
2023/07/27 07:42:58;;;;;;;7.20;6.10;;;15.30;99.90;;;;;;4979270;28;20901;-81
2023/07/27 07:45:24;;;;;;;7.15;6.38;;;15.20;99.90;;;;;;4992156;28;20049;-82
2023/07/27 07:47:49;;;;;;;8.77;5.95;;;15.20;99.90;;;;;;4977557;28;20046;-81
2023/07/27 07:50:15;;;;;;;6.30;5.70;;;15.20;99.90;;;;;;5000036;28;20045;-81
2023/07/27 07:52:40;;;;;;;6.50;5.90;;;15.20;99.90;;;;;;5006903;28;20053;-81
2023/07/27 07:55:07;;;;;;;6.15;5.43;;;15.20;99.90;;;;;;5007446;28;20065;-81
2023/07/27 07:57:32;;;;;;;5.93;5.05;;;15.20;99.90;;;;;;5000793;28;20034;-81
2023/07/27 07:59:58;;;;;;;6.30;5.35;;;15.20;99.90;;;;;;4990151;28;20042;-81
2023/07/27 08:02:24;;;;;;;5.45;4.93;;;15.30;99.90;;;;;;4989647;28;20488;-82
2023/07/27 08:04:49;;;;;;;6.40;5.38;;;15.30;99.90;;;;;;4983689;28;20452;-82
2023/07/27 08:07:15;;;;;;;5.18;4.05;;;15.30;99.90;;;;;;5001653;28;20034;-81
2023/07/27 08:09:41;;;;;;;5.13;4.57;;;15.20;99.90;;;;;;4976920;28;20654;-82
2023/07/27 08:12:07;;;;;;;7.03;4.90;;;15.20;99.90;;;;;;5003565;28;20045;-82
2023/07/27 08:14:32;;;;;;;5.55;4.35;;;15.20;99.90;;;;;;4989904;28;20049;-81
2023/07/27 08:16:58;;;;;;;5.57;4.70;;;15.20;99.90;;;;;;4974197;28;20056;-80
2023/07/27 08:19:24;;;;;;;5.07;4.03;;;15.30;99.90;;;;;;4970432;28;20167;-80
2023/07/27 08:21:49;;;;;;;4.03;3.22;;;15.30;99.90;;;;;;4969418;28;20153;-81
2023/07/27 08:24:15;;;;;;;3.90;3.08;;;15.30;99.90;;;;;;4975019;28;20664;-81
2023/07/27 08:26:40;;;;;;;3.50;3.20;;;15.30;99.90;;;;;;4974380;28;20481;-83
2023/07/27 08:29:06;;;;;;;2.60;2.40;;;15.40;99.90;;;;;;5005555;28;20037;-83
2023/07/27 08:31:32;;;;;;;3.35;2.75;;;15.40;99.90;;;;;;5019983;28;20025;-83
2023/07/27 08:37:32;;;;;;;2.90;2.58;;;15.50;99.90;;;;;;5009686;28;20038;-82
2023/07/27 08:40:24;;;;;;;3.35;2.30;;;15.50;99.90;;;;;;5015247;28;20033;-82
2023/07/27 08:43:29;;;;;;;2.40;2.20;;;15.50;99.90;;;;;;5030264;28;20034;-83
2023/07/27 09:05:01;;;;;;;2.35;2.15;;;15.80;99.90;;;;;;1487219;26;20056;-83
2023/07/27 09:08:00;;;;;;;;;;;;;;;;;;;;;
2023/07/27 09:10:51;;;;;;;2.85;2.40;;;15.80;99.90;;;;;;5068716;28;20058;-83
2023/07/27 09:13:49;;;;;;;4.07;2.42;;;15.80;99.90;;;;;;5045544;28;20387;-83
2023/07/27 09:16:21;;;;;;;2.65;2.08;;;16.10;99.90;;;;;;5069251;28;20067;-83
2023/07/27 09:19:00;;;;;;;2.45;2.25;;;15.90;99.90;;;;;;5067613;28;20059;-83
2023/07/27 09:22:13;;;;;;;2.95;2.47;;;15.90;99.90;;;;;;5067544;28;20044;-83
2023/07/27 09:24:41;;;;;;;3.97;2.30;;;16.00;99.90;;;;;;5002527;28;20044;-83
2023/07/27 09:27:24;;;;;;;2.78;2.22;;;16.50;99.90;;;;;;5063535;28;20570;-83
2023/07/27 09:31:02;;;;;;;2.45;2.25;;;16.10;99.90;;;;;;5050766;28;20043;-84
2023/07/27 09:33:30;;;;;;;2.55;2.35;;;16.20;99.90;;;;;;4985264;28;20236;-83
2023/07/27 09:36:06;;;;;;;2.03;1.92;;;16.10;99.90;;;;;;4997288;28;20429;-84
2023/07/27 09:39:15;;;;;;;4.40;2.03;;;16.30;99.90;;;;;;5067660;28;20036;-83
2023/07/27 09:44:22;;;;;;;1.45;1.35;;;16.40;99.90;;;;;;5519935;22;20053;-83
2023/07/27 09:46:56;;;;;;;3.10;1.50;;;16.40;99.90;;;;;;5035570;28;20044;-83
2023/07/27 09:53:35;;;;;;;1.50;1.33;;;16.40;99.90;;;;;;5078917;22;20500;-83
2023/07/27 09:56:06;;;;;;;2.00;1.60;;;16.70;99.90;;;;;;5016132;28;20041;-83
2023/07/27 09:58:32;;;;;;;3.88;1.63;;;16.60;99.90;;;;;;5000524;28;20026;-82
2023/07/27 10:00:58;;;;;;;1.98;1.20;;;16.50;99.90;;;;;;5015504;28;20048;-83
2023/07/27 10:03:24;;;;;;;1.45;1.35;;;16.60;99.90;;;;;;5026802;28;20081;-84
2023/07/27 10:05:50;;;;;;;1.83;1.40;;;16.60;99.90;;;;;;5021806;28;20183;-84
2023/07/27 10:08:37;;;;;;;2.63;1.60;;;16.70;99.90;;;;;;5034705;28;20053;-84
2023/07/27 10:11:02;;;;;;;1.52;1.42;;;16.60;99.90;;;;;;5018630;28;20095;-83
2023/07/27 10:13:28;;;;;;;1.80;1.70;;;16.70;99.90;;;;;;5014272;28;20037;-82
2023/07/27 10:15:55;;;;;;;2.33;1.70;;;16.70;99.90;;;;;;5031145;28;20052;-83
2023/07/27 10:18:28;;;;;;;3.17;1.50;;;16.80;99.90;;;;;;5048555;28;20796;-81
2023/07/27 10:24:58;;;;;;;2.08;1.98;;;16.90;99.90;;;;;;5012032;28;20059;-82
2023/07/27 10:27:24;;;;;;;1.77;1.67;;;16.80;99.90;;;;;;5032762;28;20055;-82
2023/07/27 10:30:08;;;;;;;1.98;1.88;;;16.80;99.90;;;;;;5035925;28;20049;-83
2023/07/27 10:32:35;;;;;;;2.22;1.95;;;16.90;99.90;;;;;;5035699;28;20045;-82
2023/07/27 10:35:08;;;;;;;1.95;1.80;;;16.90;99.90;;;;;;5029817;28;20099;-83
2023/07/27 10:37:52;;;;;;;3.08;1.83;;;16.90;99.90;;;;;;5030358;28;20043;-83
2023/07/27 10:40:26;;;;;;;1.85;1.75;;;17.00;99.90;;;;;;5013240;28;20034;-83
2023/07/27 10:43:01;;;;;;;2.40;2.30;;;17.00;99.90;;;;;;5036097;28;20546;-83
2023/07/27 10:45:27;;;;;;;4.07;2.45;;;17.00;99.90;;;;;;5047237;28;20037;-83
2023/07/27 10:47:56;;;;;;;2.53;2.33;;;17.00;99.90;;;;;;5032063;28;20047;-82
2023/07/27 10:50:23;;;;;;;2.70;2.13;;;17.10;99.90;;;;;;5029960;28;20103;-82
2023/07/27 10:52:52;;;;;;;2.47;2.30;;;17.10;99.90;;;;;;5016823;28;21548;-82
2023/07/27 10:55:20;;;;;;;2.53;2.40;;;17.20;99.90;;;;;;5028533;28;20484;-82
2023/07/27 10:57:47;;;;;;;2.58;2.45;;;17.30;99.90;;;;;;5027751;28;20079;-83
2023/07/27 11:00:14;;;;;;;2.50;2.28;;;17.30;99.90;;;;;;5048817;28;20032;-82
2023/07/27 11:02:42;;;;;;;2.60;2.40;;;17.40;99.90;;;;;;5031095;28;20030;-82
2023/07/27 11:05:09;;;;;;;2.58;2.20;;;17.50;99.90;;;;;;5045690;28;20033;-82
2023/07/27 11:07:36;;;;;;;2.67;2.47;;;17.40;99.90;;;;;;5033324;28;20048;-83
2023/07/27 11:10:06;;;;;;;3.60;2.28;;;17.50;99.90;;;;;;5032475;28;20045;-83
2023/07/27 11:12:45;;;;;;;2.70;2.50;;;17.50;99.90;;;;;;5029068;28;20399;-82
2023/07/27 11:15:21;;;;;;;3.28;2.92;;;17.60;99.90;;;;;;5049393;28;20441;-83
2023/07/27 11:17:53;;;;;;;6.25;2.85;;;17.60;99.90;;;;;;5051918;28;20104;-82
2023/07/27 11:20:26;;;;;;;3.67;3.00;;;17.70;99.90;;;;;;5032569;28;20419;-83
2023/07/27 11:22:53;;;;;;;3.15;2.28;;;17.70;99.90;;;;;;5026295;28;20045;-83
2023/07/27 11:25:19;;;;;;;2.85;2.65;;;18.20;99.90;;;;;;5048725;28;20040;-83
2023/07/27 11:27:49;;;;;;;2.92;2.72;;;17.80;99.90;;;;;;5013289;28;20038;-82
2023/07/27 11:30:17;;;;;;;2.40;2.30;;;17.90;99.90;;;;;;5045487;28;20044;-82
2023/07/27 11:33:04;;;;;;;2.78;2.55;;;18.10;99.90;;;;;;5049556;28;20052;-83
2023/07/27 11:35:30;;;;;;;3.00;2.80;;;18.00;99.90;;;;;;5026505;28;20049;-82
2023/07/27 11:37:56;;;;;;;3.28;2.90;;;18.00;99.90;;;;;;5036384;28;20064;-82
2023/07/27 11:40:23;;;;;;;2.85;2.70;;;18.00;99.90;;;;;;5026700;28;20044;-83
2023/07/27 11:42:49;;;;;;;3.10;2.90;;;18.10;99.90;;;;;;5032682;28;20037;-83
2023/07/27 11:45:14;;;;;;;5.95;3.15;;;18.10;99.90;;;;;;5026109;28;20680;-82
2023/07/27 11:47:40;;;;;;;3.28;2.70;;;18.10;99.90;;;;;;5048772;28;20055;-83
2023/07/27 11:50:09;;;;;;;3.53;3.20;;;18.20;99.90;;;;;;5044441;28;21172;-83
2023/07/27 11:52:39;;;;;;;3.72;2.40;;;18.30;99.90;;;;;;5031735;28;20374;-83
2023/07/27 11:55:05;;;;;;;2.38;2.15;;;18.30;99.90;;;;;;5034267;28;20111;-83
2023/07/27 11:57:31;;;;;;;2.20;2.10;;;18.30;99.90;;;;;;5036468;28;20499;-83
2023/07/27 12:00:12;;;;;;;2.63;2.42;;;18.30;99.90;;;;;;5031836;28;20047;-83
2023/07/27 12:02:40;;;;;;;2.35;2.25;;;18.40;99.90;;;;;;5030841;28;20505;-83
2023/07/27 12:05:06;;;;;;;1.90;1.80;;;18.30;99.90;;;;;;5031885;28;20041;-83
2023/07/27 12:07:34;;;;;;;2.47;2.33;;;18.30;99.90;;;;;;5031875;28;20507;-83
2023/07/27 12:10:00;;;;;;;1.85;1.70;;;18.30;99.90;;;;;;5047801;28;20049;-83
2023/07/27 12:12:25;;;;;;;4.22;2.03;;;18.30;99.90;;;;;;5028150;28;20033;-82
2023/07/27 12:14:54;;;;;;;2.22;2.03;;;18.30;99.90;;;;;;5025493;28;20136;-83
2023/07/27 12:17:22;;;;;;;3.20;1.85;;;18.30;99.90;;;;;;5047296;28;20037;-82
2023/07/27 12:19:48;;;;;;;2.83;2.13;;;18.30;99.90;;;;;;5028986;28;20036;-83
2023/07/27 12:22:13;;;;;;;2.30;2.10;;;18.30;99.90;;;;;;5027282;28;20506;-83
2023/07/27 12:24:44;;;;;;;2.70;2.50;;;18.40;99.90;;;;;;5051209;28;20045;-83
2023/07/27 12:27:09;;;;;;;4.68;2.30;;;18.50;99.90;;;;;;5034582;28;20033;-83
2023/07/27 12:29:35;;;;;;;3.15;2.38;;;18.50;99.90;;;;;;5032213;28;20451;-83
2023/07/27 12:32:00;;;;;;;2.88;2.67;;;18.50;99.90;;;;;;5031400;28;20080;-83
2023/07/27 12:34:26;;;;;;;3.00;2.80;;;18.50;99.90;;;;;;5047753;28;20045;-83
2023/07/27 12:36:52;;;;;;;2.85;2.65;;;18.50;99.90;;;;;;5047049;28;20033;-83
2023/07/27 12:39:18;;;;;;;2.65;2.47;;;18.50;99.90;;;;;;5028503;28;20049;-83
2023/07/27 12:41:44;;;;;;;5.10;3.65;;;18.50;99.90;;;;;;5018161;28;20043;-83
2023/07/27 12:44:09;;;;;;;3.33;3.10;;;18.50;99.90;;;;;;5048489;28;20037;-83
2023/07/27 12:46:35;;;;;;;3.55;3.35;;;18.50;99.90;;;;;;5036717;28;20033;-84
2023/07/27 12:49:00;;;;;;;3.80;3.08;;;18.50;99.90;;;;;;5052461;28;20041;-82
2023/07/27 12:51:26;;;;;;;3.67;3.20;;;18.50;99.90;;;;;;5015520;28;20033;-83
2023/07/27 12:53:52;;;;;;;3.88;3.60;;;18.50;99.90;;;;;;5031858;28;20041;-83
2023/07/27 12:56:18;;;;;;;3.83;3.53;;;18.60;99.90;;;;;;5051925;28;20037;-83
2023/07/27 12:58:43;;;;;;;4.05;3.75;;;18.60;99.90;;;;;;5033935;28;20037;-83
2023/07/27 13:01:09;;;;;;;3.95;3.72;;;18.70;99.90;;;;;;5030259;28;20060;-83
2023/07/27 13:03:36;;;;;;;4.13;3.80;;;18.70;99.90;;;;;;5030177;28;20510;-83
2023/07/27 13:06:02;;;;;;;4.55;4.25;;;18.70;99.90;;;;;;5032678;28;20045;-84
2023/07/27 13:08:28;;;;;;;4.28;3.97;;;18.80;99.90;;;;;;5028223;28;20075;-84
2023/07/27 13:10:54;;;;;;;4.22;3.92;;;18.70;99.90;;;;;;5031687;28;20041;-83
2023/07/27 13:13:19;;;;;;;3.75;3.53;;;18.80;99.90;;;;;;5030722;28;20040;-83
2023/07/27 13:15:45;;;;;;;5.05;4.60;;;18.80;99.90;;;;;;5031408;28;20072;-83
2023/07/27 13:18:10;;;;;;;4.38;3.80;;;18.80;99.90;;;;;;5033897;28;20163;-83
2023/07/27 13:20:38;;;;;;;4.47;3.97;;;18.90;99.90;;;;;;5030365;28;20036;-83
2023/07/27 13:23:06;;;;;;;2.90;2.70;;;19.20;99.90;;;;;;5046864;28;20076;-83
2023/07/27 13:25:31;;;;;;;2.20;2.10;;;18.90;99.90;;;;;;5043025;28;20029;-82
2023/07/27 13:27:57;;;;;;;2.88;1.20;;;19.00;99.90;;;;;;5045462;28;20487;-83
2023/07/27 13:30:23;;;;;;;0.75;0.40;;;19.20;99.90;;;;;;5051292;28;20052;-83
2023/07/27 13:32:49;;;;;;;0.50;0.40;;;19.10;99.90;;;;;;5050254;28;20067;-84
2023/07/27 13:35:15;;;;;;;0.57;0.30;;;19.20;99.90;;;;;;5050175;28;20064;-83
2023/07/27 13:37:40;;;;;;;1.77;0.70;;;19.30;99.90;;;;;;5046956;28;20033;-83
2023/07/27 13:40:06;;;;;;;0.93;0.47;;;19.30;99.90;;;;;;5014410;28;20036;-83
2023/07/27 13:42:32;;;;;;;1.10;0.45;;;19.40;99.90;;;;;;5052457;28;20116;-83
2023/07/27 13:44:58;;;;;;;1.58;0.70;;;19.40;99.90;;;;;;5043788;28;20519;-83
2023/07/27 13:47:23;;;;;;;1.40;0.60;;;19.40;99.90;;;;;;5028007;28;20037;-83
2023/07/27 13:49:49;;;;;;;3.65;0.60;;;19.50;99.90;;;;;;5013052;28;20132;-84
2023/07/27 13:52:15;;;;;;;1.88;0.40;;;19.50;99.90;;;;;;5048439;28;20120;-83
2023/07/27 13:54:40;;;;;;;2.85;0.38;;;19.50;99.90;;;;;;5033684;28;20044;-84
2023/07/27 13:57:06;;;;;;;0.60;0.20;;;19.60;99.90;;;;;;5045399;28;20044;-83
2023/07/27 13:59:31;;;;;;;0.77;0.30;;;19.60;99.90;;;;;;5020221;28;20040;-83
2023/07/27 14:01:58;;;;;;;0.98;0.63;;;19.60;99.90;;;;;;5031960;28;20037;-83
2023/07/27 14:04:24;;;;;;;0.30;0.20;;;19.60;99.90;;;;;;5027476;28;20761;-84
2023/07/27 14:06:49;;;;;;;0.20;0.20;;;19.60;99.90;;;;;;5049510;28;20142;-83
2023/07/27 14:09:16;;;;;;;2.47;0.30;;;19.60;99.90;;;;;;5021357;28;20048;-83
2023/07/27 14:11:41;;;;;;;0.63;0.20;;;19.60;99.90;;;;;;5038595;28;20140;-83
2023/07/27 14:14:07;;;;;;;1.65;0.30;;;19.50;99.90;;;;;;5041136;28;20379;-83
2023/07/27 14:16:32;;;;;;;0.95;0.30;;;19.50;99.90;;;;;;5034189;28;20040;-83
2023/07/27 14:18:58;;;;;;;1.65;0.40;;;19.50;99.90;;;;;;5049344;28;20041;-83
2023/07/27 14:21:24;;;;;;;0.30;0.30;;;19.60;99.90;;;;;;5043922;28;20403;-84
2023/07/27 14:23:49;;;;;;;0.40;0.20;;;19.60;99.90;;;;;;5047644;28;20369;-83
2023/07/27 14:26:15;;;;;;;1.05;0.40;;;19.50;99.90;;;;;;5018472;28;20185;-83
2023/07/27 14:28:41;;;;;;;1.00;0.50;;;19.60;99.90;;;;;;5035406;28;20811;-83
2023/07/27 14:31:07;;;;;;;0.40;0.40;;;19.60;99.90;;;;;;5043094;28;20029;-83
2023/07/27 14:33:33;;;;;;;0.80;0.30;;;19.50;99.90;;;;;;5035931;28;20037;-84
2023/07/27 14:35:59;;;;;;;0.50;0.47;;;19.50;99.90;;;;;;5036417;28;20052;-83
2023/07/27 14:38:25;;;;;;;2.17;0.40;;;19.40;99.90;;;;;;5036354;28;20049;-83
2023/07/27 14:40:51;;;;;;;0.82;0.45;;;19.40;99.90;;;;;;5053634;28;20037;-84
2023/07/27 14:43:16;;;;;;;0.30;0.28;;;19.40;99.90;;;;;;5025435;28;20052;-83
2023/07/27 14:45:42;;;;;;;0.52;0.40;;;19.50;99.90;;;;;;5052573;28;20029;-84
2023/07/27 14:48:08;;;;;;;1.20;0.25;;;19.50;99.90;;;;;;5049516;28;20060;-83
2023/07/27 14:50:34;;;;;;;0.45;0.30;;;19.50;99.90;;;;;;5032290;28;20033;-83
2023/07/27 14:52:59;;;;;;;1.05;0.30;;;19.50;99.90;;;;;;5029037;28;20040;-83
2023/07/27 14:55:25;;;;;;;1.98;0.60;;;19.50;99.90;;;;;;5031346;28;20073;-84
2023/07/27 14:57:51;;;;;;;3.50;0.60;;;19.50;99.90;;;;;;5033652;28;20496;-83
2023/07/27 15:00:18;;;;;;;0.63;0.60;;;19.50;99.90;;;;;;5034287;28;20040;-83
2023/07/27 15:02:43;;;;;;;1.90;0.80;;;19.50;99.90;;;;;;5034774;28;20052;-84
2023/07/27 15:05:09;;;;;;;1.70;0.73;;;19.50;99.90;;;;;;5045479;28;20114;-82
2023/07/27 15:07:35;;;;;;;1.40;1.00;;;19.50;99.90;;;;;;5034087;28;20040;-83
2023/07/27 15:10:00;;;;;;;2.17;0.95;;;19.40;99.90;;;;;;5048532;28;20029;-83
2023/07/27 15:12:26;;;;;;;3.33;1.13;;;19.50;99.90;;;;;;5033435;28;20056;-84
2023/07/27 15:14:53;;;;;;;3.47;1.10;;;19.40;99.90;;;;;;5029537;28;20420;-83
2023/07/27 15:17:19;;;;;;;1.50;1.38;;;19.30;99.90;;;;;;5030756;28;20097;-83
2023/07/27 15:19:45;;;;;;;4.07;1.67;;;19.30;99.90;;;;;;5030217;28;20067;-83
2023/07/27 15:22:11;;;;;;;3.63;2.05;;;19.30;99.90;;;;;;5017154;28;20045;-83
2023/07/27 15:24:39;;;;;;;2.72;1.77;;;19.40;99.90;;;;;;5034935;28;20060;-84
2023/07/27 15:27:06;;;;;;;2.75;2.00;;;19.70;99.90;;;;;;5020206;28;20064;-83
2023/07/27 15:29:32;;;;;;;3.38;2.10;;;19.30;99.90;;;;;;5018683;28;20101;-83
2023/07/27 15:31:58;;;;;;;2.05;1.60;;;19.30;99.90;;;;;;5017960;28;20497;-83
2023/07/27 15:34:24;;;;;;;2.03;1.40;;;19.30;99.90;;;;;;5010532;28;20041;-83
2023/07/27 15:36:49;;;;;;;2.05;1.15;;;19.40;99.90;;;;;;5018654;28;20037;-83
2023/07/27 15:39:15;;;;;;;2.97;1.55;;;19.60;99.90;;;;;;5035708;28;20089;-83
2023/07/27 15:41:43;;;;;;;1.45;0.47;;;19.20;99.90;;;;;;5018099;28;20037;-83
2023/07/27 15:44:14;;;;;;;2.08;0.50;;;19.10;99.90;;;;;;5043272;28;20125;-83
2023/07/27 15:46:43;;;;;;;1.60;0.52;;;19.20;99.90;;;;;;5049638;28;20033;-83
2023/07/27 15:49:12;;;;;;;3.28;0.85;;;19.30;99.90;;;;;;5048017;28;20029;-83
2023/07/27 15:51:51;;;;;;;0.70;0.30;;;18.90;99.90;;;;;;5048627;28;20128;-82
2023/07/27 15:54:16;;;;;;;2.55;0.30;;;19.30;99.90;;;;;;5013235;28;20045;-82
2023/07/27 15:56:45;;;;;;;2.40;0.20;;;19.10;99.90;;;;;;5031580;28;20041;-82
2023/07/27 15:59:10;;;;;;;3.60;0.40;;;19.10;99.90;;;;;;5018943;28;20033;-83
2023/07/27 16:01:36;;;;;;;1.05;0.32;;;19.20;99.90;;;;;;5031342;28;20059;-83
2023/07/27 16:04:02;;;;;;;0.65;0.20;;;19.20;99.90;;;;;;5044089;28;20048;-84
2023/07/27 16:06:28;;;;;;;0.80;0.20;;;19.20;99.90;;;;;;5017430;28;20487;-83
2023/07/27 16:08:54;;;;;;;2.78;0.50;;;19.20;99.90;;;;;;5034016;28;20036;-83
2023/07/27 16:11:20;;;;;;;3.63;0.63;;;19.30;99.90;;;;;;5028660;28;20049;-84
2023/07/27 16:13:45;;;;;;;0.93;0.40;;;19.30;99.90;;;;;;5026609;28;20067;-83
2023/07/27 16:16:11;;;;;;;2.10;0.30;;;19.30;99.90;;;;;;5045239;28;20045;-83
2023/07/27 16:18:36;;;;;;;3.10;0.82;;;19.20;99.90;;;;;;5044030;28;20041;-84
2023/07/27 16:21:02;;;;;;;1.40;0.75;;;19.20;99.90;;;;;;5029431;28;20045;-84
2023/07/27 16:23:32;;;;;;;1.48;0.47;;;19.20;99.90;;;;;;5028030;28;20040;-83
2023/07/27 16:26:06;;;;;;;0.80;0.50;;;19.20;99.90;;;;;;5047467;28;20041;-84
2023/07/27 16:28:34;;;;;;;2.00;0.60;;;19.20;99.90;;;;;;5023234;28;20815;-84
2023/07/27 16:31:00;;;;;;;1.20;0.70;;;19.20;99.90;;;;;;5030122;28;20120;-83
2023/07/27 16:33:25;;;;;;;1.55;0.70;;;19.20;99.90;;;;;;5023277;28;20080;-83
2023/07/27 16:35:51;;;;;;;1.65;0.77;;;19.20;99.90;;;;;;5046124;28;20049;-83
2023/07/27 16:38:17;;;;;;;1.02;0.82;;;19.10;99.90;;;;;;5027108;28;20037;-83
2023/07/27 16:40:42;;;;;;;3.13;0.82;;;19.20;99.90;;;;;;5028179;28;20051;-84
2023/07/27 16:43:10;;;;;;;5.85;1.13;;;19.40;99.90;;;;;;5009984;28;20081;-84
2023/07/27 16:45:40;;;;;;;1.23;1.00;;;19.20;99.90;;;;;;5021468;28;20025;-83
2023/07/27 16:48:07;;;;;;;1.60;0.60;;;19.10;99.90;;;;;;5007989;28;20064;-83
2023/07/27 16:50:35;;;;;;;2.67;0.80;;;19.10;99.90;;;;;;5016017;28;20033;-84
2023/07/27 16:53:01;;;;;;;0.95;0.70;;;19.00;99.90;;;;;;5045890;28;20087;-84
2023/07/27 16:56:05;;;;;;;5.63;1.00;;;19.00;99.90;;;;;;5010936;28;20483;-84
2023/07/27 16:58:43;;;;;;;2.70;0.90;;;19.10;99.90;;;;;;5026938;28;20064;-84
2023/07/27 17:01:16;;;;;;;4.85;1.05;;;19.00;99.90;;;;;;5044700;28;20108;-85
2023/07/27 17:03:41;;;;;;;5.10;1.13;;;19.00;99.90;;;;;;5030368;28;20033;-83
2023/07/27 17:06:14;;;;;;;2.92;1.55;;;19.00;99.90;;;;;;5027088;28;20670;-84
2023/07/27 17:08:47;;;;;;;4.70;2.47;;;19.10;99.90;;;;;;5012958;28;20049;-85
2023/07/27 17:11:14;;;;;;;3.25;2.10;;;19.10;99.90;;;;;;5029079;28;20053;-84
2023/07/27 17:13:41;;;;;;;5.35;2.80;;;19.20;99.90;;;;;;5014127;28;20853;-85
2023/07/27 17:16:09;;;;;;;6.53;3.67;;;19.10;99.90;;;;;;5008972;28;20520;-85
2023/07/27 17:18:38;;;;;;;7.15;3.25;;;19.10;99.90;;;;;;5024994;28;20123;-85
2023/07/27 17:21:15;;;;;;;5.18;3.90;;;19.10;99.90;;;;;;5030300;28;20040;-85